EGPL

Benbecula Airport

Balivanich, United Kingdom
METAR EGPL 152050Z AUTO 22009KT 9999 -RA FEW027/// 14/13 Q1009
Observed Flight Rules
Jul-15 @ 20:50 UTC (12 minutes ago) Visual Flight Rules
Wind Visibility Clouds Conditions
220° at 9 knots 10,000+ meters
  • Few at 2,700' AGL
  • Light Rain
Temperatures Readings
Current 14°C / 57°F
Dewpoint 13°C / 55°F
Humidity 94%
Altimeter 29.79" Hg
Pressure 1009 hPa
Elevation 6
METAR EGPL 152050Z AUTO 22009KT 9999 -RA FEW027/// 14/13 Q1009
Observed Flight Rules
Jul-15 @ 20:50 UTC
(12 minutes ago)
VFR
Wind Visibility
220° at 9 knots 10,000+ meters
Clouds
  • Few at 2,700' AGL
Conditions
  • Light Rain
Temperature Dewpoint
14°C / 57°F 13°C / 55°F
Humidity Altimeter Pressure
94% 29.79" Hg 1009 hPa